createdAt,value
2019-04-14T00:01:59.264Z,76.10
2019-04-14T00:04:33.844Z,77.30
2019-04-14T00:07:05.743Z,77.20
2019-04-14T00:09:36.431Z,77.30
2019-04-14T00:12:08.985Z,77.90
2019-04-14T00:14:42.863Z,77.50
2019-04-14T00:17:13.496Z,78.00
2019-04-14T00:19:44.037Z,78.00
2019-04-14T00:22:14.595Z,78.00
2019-04-14T00:24:45.008Z,78.50
2019-04-14T00:27:15.504Z,78.10
2019-04-14T00:29:46.138Z,78.40
2019-04-14T00:32:16.864Z,78.20
2019-04-14T00:35:06.348Z,78.00
2019-04-14T00:37:58.287Z,78.20
2019-04-14T00:40:34.676Z,78.50
2019-04-14T00:43:15.675Z,78.30
2019-04-14T00:45:58.185Z,79.20
2019-04-14T00:48:29.882Z,78.70
2019-04-14T00:51:02.674Z,79.10
2019-04-14T00:53:33.905Z,78.50
2019-04-14T00:56:04.582Z,79.80
2019-04-14T00:58:35.038Z,79.70
2019-04-14T01:01:06.927Z,80.10
2019-04-14T01:03:37.468Z,80.20
2019-04-14T01:06:07.963Z,79.80
2019-04-14T01:08:38.803Z,79.60
2019-04-14T01:11:09.591Z,79.90
2019-04-14T01:13:41.832Z,79.80
2019-04-14T01:16:17.613Z,79.20
2019-04-14T01:18:45.089Z,78.80
2019-04-14T01:21:15.772Z,78.90
2019-04-14T01:23:46.230Z,79.00
2019-04-14T01:26:16.627Z,78.20
2019-04-14T01:28:48.311Z,78.20
2019-04-14T01:31:18.848Z,78.00
2019-04-14T01:33:49.309Z,78.30
2019-04-14T01:36:21.216Z,78.00
2019-04-14T01:38:53.632Z,77.80
2019-04-14T01:41:24.102Z,78.00
2019-04-14T01:43:55.972Z,77.90
2019-04-14T01:46:30.813Z,78.60
2019-04-14T01:49:00.677Z,77.90
2019-04-14T01:51:44.240Z,78.60
2019-04-14T01:54:29.930Z,78.40
2019-04-14T01:57:19.997Z,79.50
2019-04-14T01:59:50.734Z,80.20
2019-04-14T02:02:24.800Z,79.90
2019-04-14T02:04:55.445Z,79.80
2019-04-14T02:07:26.009Z,79.70
2019-04-14T02:09:57.571Z,79.70
2019-04-14T02:12:28.379Z,80.70
2019-04-14T02:14:58.942Z,81.10
2019-04-14T02:17:30.709Z,81.30
2019-04-14T02:20:01.396Z,81.50
2019-04-14T02:22:33.465Z,81.50
2019-04-14T02:25:05.573Z,81.80
2019-04-14T02:27:36.435Z,81.70
2019-04-14T02:30:10.158Z,82.10
2019-04-14T02:33:05.370Z,82.40
2019-04-14T02:35:45.165Z,82.60
2019-04-14T02:38:29.122Z,83.40
2019-04-14T02:40:50.835Z,83.50
2019-04-14T02:45:52.083Z,83.80
2019-04-14T02:48:36.057Z,84.00
2019-04-14T02:50:53.426Z,84.10
2019-04-14T02:53:23.832Z,84.20
2019-04-14T02:56:05.167Z,84.40
2019-04-14T03:03:41.623Z,84.20
2019-04-14T03:06:07.106Z,84.40
2019-04-14T03:08:44.872Z,84.80
2019-04-14T03:11:09.676Z,84.80
2019-04-14T03:13:45.632Z,84.50
2019-04-14T03:19:06.655Z,83.80
2019-04-14T03:22:02.955Z,84.60
2019-04-14T03:24:37.556Z,84.60
2019-04-14T03:27:38.073Z,84.50
2019-04-14T03:33:05.281Z,84.40
2019-04-14T03:37:50.337Z,83.90
2019-04-14T03:40:23.717Z,84.30
2019-04-14T03:43:05.840Z,84.80
2019-04-14T03:45:37.816Z,84.90
2019-04-14T03:48:31.523Z,84.30
2019-04-14T03:50:29.130Z,83.80
2019-04-14T03:53:09.629Z,83.90
2019-04-14T03:55:20.295Z,84.60
2019-04-14T03:57:41.182Z,83.30
2019-04-14T04:00:11.804Z,83.90
2019-04-14T04:02:42.363Z,83.80
2019-04-14T04:05:12.982Z,83.60
2019-04-14T04:07:43.588Z,84.50
2019-04-14T04:10:17.985Z,84.00
2019-04-14T04:12:48.728Z,83.70
2019-04-14T04:15:19.359Z,83.80
2019-04-14T04:17:55.868Z,83.20
2019-04-14T04:20:45.645Z,84.20
2019-04-14T04:23:22.760Z,84.30
2019-04-14T04:26:06.083Z,84.70
2019-04-14T04:28:56.315Z,84.70
2019-04-14T04:31:37.440Z,84.80
2019-04-14T04:34:27.328Z,84.30
2019-04-14T04:37:06.059Z,84.20
2019-04-14T04:39:39.779Z,84.20
2019-04-14T04:42:11.352Z,84.50
2019-04-14T04:44:42.143Z,85.50
2019-04-14T04:47:12.787Z,84.30
2019-04-14T04:49:44.432Z,84.70
2019-04-14T04:52:15.782Z,84.60
2019-04-14T04:54:47.437Z,84.40
2019-04-14T04:57:18.042Z,84.00
2019-04-14T04:59:49.540Z,84.40
2019-04-14T05:02:20.261Z,83.60
2019-04-14T05:04:50.688Z,83.60
2019-04-14T05:07:23.135Z,85.10
2019-04-14T05:10:13.808Z,83.30
2019-04-14T05:12:48.158Z,82.50
2019-04-14T05:15:29.614Z,83.10
2019-04-14T05:18:00.469Z,82.80
2019-04-14T05:20:31.405Z,83.80
2019-04-14T05:23:01.927Z,82.00
2019-04-14T05:25:32.610Z,82.30
2019-04-14T05:28:03.092Z,82.10
2019-04-14T05:30:34.742Z,82.20
2019-04-14T05:33:07.469Z,81.50
2019-04-14T05:35:38.293Z,82.70
2019-04-14T05:38:08.996Z,81.80
2019-04-14T05:40:40.729Z,82.30
2019-04-14T05:43:11.467Z,81.40
2019-04-14T05:45:42.166Z,82.70
2019-04-14T05:48:13.853Z,81.10
2019-04-14T05:50:45.509Z,81.30
2019-04-14T05:53:17.476Z,80.70
2019-04-14T05:55:48.280Z,81.40
2019-04-14T05:58:18.895Z,80.20
2019-04-14T06:00:50.538Z,80.20
2019-04-14T06:03:21.773Z,79.20
2019-04-14T06:05:52.338Z,79.10
2019-04-14T06:08:22.926Z,78.60
2019-04-14T06:10:53.579Z,79.40
2019-04-14T06:13:24.038Z,78.50
2019-04-14T06:15:54.816Z,78.40
2019-04-14T06:18:25.344Z,78.10
2019-04-14T06:20:55.764Z,77.80
2019-04-14T06:23:26.381Z,77.60
2019-04-14T06:25:56.735Z,76.40
2019-04-14T06:28:27.268Z,76.10
2019-04-14T06:31:10.356Z,76.40
2019-04-14T06:33:46.976Z,74.80
2019-04-14T06:36:36.443Z,74.70
2019-04-14T06:39:11.446Z,75.20
2019-04-14T06:41:42.039Z,75.90
2019-04-14T06:44:12.560Z,73.20
2019-04-14T06:46:42.948Z,72.80
2019-04-14T06:49:13.336Z,71.80
2019-04-14T06:51:48.986Z,73.30
2019-04-14T06:54:19.392Z,71.40
2019-04-14T06:56:49.906Z,71.80
2019-04-14T06:59:20.355Z,71.70
2019-04-14T07:01:50.800Z,70.80
2019-04-14T07:04:21.337Z,70.60
2019-04-14T07:06:51.754Z,71.70
2019-04-14T07:09:22.265Z,71.10
2019-04-14T07:11:53.009Z,69.80
2019-04-14T07:14:23.605Z,68.30
2019-04-14T07:16:53.933Z,67.80
2019-04-14T07:19:25.351Z,68.40
2019-04-14T07:21:55.863Z,67.60
2019-04-14T07:24:26.294Z,65.70
2019-04-14T07:26:56.695Z,65.80
2019-04-14T07:29:29.833Z,65.20
2019-04-14T07:32:10.548Z,63.30
2019-04-14T07:34:51.149Z,64.20
2019-04-14T07:37:40.711Z,64.70
2019-04-14T07:40:30.448Z,63.90
2019-04-14T07:43:10.191Z,60.00
2019-04-14T07:45:59.738Z,60.70
2019-04-14T07:48:35.397Z,61.30
2019-04-14T07:51:19.445Z,61.90
2019-04-14T07:54:08.973Z,60.70
2019-04-14T07:56:58.459Z,59.70
2019-04-14T07:59:47.919Z,59.80
2019-04-14T08:02:37.432Z,60.50
2019-04-14T08:05:15.334Z,60.00
2019-04-14T08:07:48.701Z,59.40
2019-04-14T08:10:20.437Z,59.60
2019-04-14T08:12:50.868Z,56.30
2019-04-14T08:15:21.406Z,57.20
2019-04-14T08:17:55.181Z,57.50
2019-04-14T08:20:30.288Z,55.10
2019-04-14T08:23:01.152Z,59.50
2019-04-14T08:25:32.693Z,58.40
2019-04-14T08:28:03.119Z,56.80
2019-04-14T08:30:33.729Z,56.70
2019-04-14T08:33:04.254Z,54.80
2019-04-14T08:35:34.951Z,54.80
2019-04-14T08:38:05.570Z,55.00
2019-04-14T08:40:36.211Z,55.40
2019-04-14T08:43:23.385Z,55.50
2019-04-14T08:45:58.458Z,57.20
2019-04-14T08:48:48.055Z,57.70
2019-04-14T08:51:37.708Z,54.20
2019-04-14T08:54:29.719Z,52.70
2019-04-14T08:57:19.289Z,56.00
2019-04-14T08:59:59.079Z,54.90
2019-04-14T09:02:41.339Z,53.50
2019-04-14T09:05:20.526Z,52.60
2019-04-14T09:08:10.170Z,53.50
2019-04-14T09:10:44.147Z,53.00
2019-04-14T09:13:14.811Z,55.30
2019-04-14T09:15:45.497Z,53.60
2019-04-14T09:18:16.011Z,51.70
2019-04-14T09:20:52.642Z,51.80
2019-04-14T09:23:18.651Z,49.90
2019-04-14T09:25:49.139Z,50.20
2019-04-14T09:28:19.557Z,49.60
2019-04-14T09:30:49.952Z,49.40
2019-04-14T09:33:20.501Z,49.60
2019-04-14T09:35:50.955Z,51.20
2019-04-14T09:38:21.500Z,51.00
2019-04-14T09:40:51.949Z,52.30
2019-04-14T09:43:22.358Z,48.50
2019-04-14T09:45:52.820Z,46.40
2019-04-14T09:48:23.694Z,46.90
2019-04-14T09:51:04.175Z,45.10
2019-04-14T09:53:26.502Z,46.30
2019-04-14T09:55:56.969Z,45.60
2019-04-14T09:58:27.575Z,45.70
2019-04-14T10:00:58.352Z,44.00
2019-04-14T10:03:28.937Z,46.00
2019-04-14T10:05:59.541Z,45.30
2019-04-14T10:08:30.006Z,45.50
2019-04-14T10:11:00.439Z,45.60
2019-04-14T10:13:32.201Z,46.80
2019-04-14T10:16:02.731Z,47.80
2019-04-14T10:18:33.205Z,43.70
2019-04-14T10:21:03.631Z,42.70
2019-04-14T10:23:34.091Z,43.80
2019-04-14T10:26:06.475Z,46.00
2019-04-14T10:28:36.962Z,45.60
2019-04-14T10:31:07.482Z,45.20
2019-04-14T10:33:38.102Z,43.80
2019-04-14T10:36:08.691Z,42.50
2019-04-14T10:38:39.191Z,44.30
2019-04-14T10:41:09.834Z,43.60
2019-04-14T10:43:40.386Z,43.90
2019-04-14T10:46:10.871Z,43.10
2019-04-14T10:48:41.407Z,43.40
2019-04-14T10:51:11.882Z,43.30
2019-04-14T10:53:43.054Z,43.00
2019-04-14T10:56:13.709Z,43.00
2019-04-14T10:58:44.250Z,40.20
2019-04-14T11:01:14.960Z,41.50
2019-04-14T11:03:45.480Z,42.10
2019-04-14T11:06:28.177Z,41.60
2019-04-14T11:08:58.799Z,40.70
2019-04-14T11:11:29.284Z,42.70
2019-04-14T11:14:03.025Z,39.90
2019-04-14T11:16:33.568Z,40.40
2019-04-14T11:19:04.546Z,40.20
2019-04-14T11:21:42.404Z,42.10
2019-04-14T11:24:07.542Z,43.20
2019-04-14T11:26:38.190Z,41.90
2019-04-14T11:29:08.846Z,39.00
2019-04-14T11:31:53.023Z,38.90
2019-04-14T11:34:27.152Z,38.50
2019-04-14T11:37:13.116Z,38.10
2019-04-14T11:39:44.552Z,37.70
2019-04-14T11:42:15.271Z,40.30
2019-04-14T11:44:47.189Z,37.10
2019-04-14T11:47:17.891Z,36.60
2019-04-14T11:49:48.540Z,35.90
2019-04-14T11:52:19.315Z,38.90
2019-04-14T11:54:50.062Z,39.00
2019-04-14T11:57:21.047Z,37.70
2019-04-14T12:00:01.080Z,36.50
2019-04-14T12:02:50.912Z,35.20
2019-04-14T12:05:37.555Z,33.80
2019-04-14T12:08:15.911Z,35.40
2019-04-14T12:10:46.599Z,35.40
2019-04-14T12:13:17.233Z,34.80
2019-04-14T12:15:47.949Z,35.80
2019-04-14T12:18:18.589Z,35.00
2019-04-14T12:20:49.053Z,35.70
2019-04-14T12:23:20.140Z,36.90
2019-04-14T12:25:50.619Z,35.30
2019-04-14T12:28:21.932Z,34.30
2019-04-14T12:30:53.253Z,33.90
2019-04-14T12:33:23.900Z,33.10
2019-04-14T12:35:54.510Z,31.20
2019-04-14T12:38:25.098Z,31.90
2019-04-14T12:40:58.919Z,34.30
2019-04-14T12:43:38.711Z,30.40
2019-04-14T12:46:29.256Z,31.10
2019-04-14T12:49:08.623Z,30.40
2019-04-14T12:52:01.888Z,30.00
2019-04-14T12:54:32.842Z,29.00
2019-04-14T12:57:03.557Z,29.70
2019-04-14T12:59:37.373Z,29.70
2019-04-14T13:02:18.541Z,30.20
2019-04-14T13:04:55.264Z,29.70
2019-04-14T13:07:24.963Z,29.90
2019-04-14T13:09:55.611Z,30.80
2019-04-14T13:12:26.649Z,29.50
2019-04-14T13:14:57.632Z,29.80
2019-04-14T13:17:28.378Z,30.20
2019-04-14T13:19:58.973Z,29.90
2019-04-14T13:22:34.143Z,29.20
2019-04-14T13:25:01.856Z,30.00
2019-04-14T13:27:32.414Z,28.70
2019-04-14T13:30:03.389Z,31.20
2019-04-14T13:32:36.154Z,30.00
2019-04-14T13:35:07.902Z,28.40
2019-04-14T13:37:39.065Z,29.10
2019-04-14T13:40:11.896Z,29.50
2019-04-14T13:42:42.621Z,31.90
2019-04-14T13:45:13.989Z,32.40
2019-04-14T13:47:44.796Z,33.30
2019-04-14T13:50:15.559Z,32.70
2019-04-14T13:52:48.435Z,34.30
2019-04-14T13:55:19.178Z,33.40
2019-04-14T13:57:49.899Z,31.10
2019-04-14T14:00:21.353Z,31.80
2019-04-14T14:02:53.588Z,32.20
2019-04-14T14:05:24.107Z,33.90
2019-04-14T14:07:55.505Z,31.80
2019-04-14T14:10:26.084Z,32.60
2019-04-14T14:13:11.493Z,31.70
2019-04-14T14:15:54.797Z,32.80
2019-04-14T14:18:44.459Z,32.30
2019-04-14T14:21:34.022Z,35.20
2019-04-14T14:24:15.162Z,35.50
2019-04-14T14:26:46.751Z,35.80
2019-04-14T14:29:17.478Z,36.00
2019-04-14T14:31:48.509Z,33.60
2019-04-14T14:34:19.261Z,35.10
2019-04-14T14:36:49.958Z,34.90
2019-04-14T14:39:21.429Z,33.40
2019-04-14T14:41:52.064Z,32.60
2019-04-14T14:44:24.533Z,34.20
2019-04-14T14:47:04.788Z,35.40
2019-04-14T14:49:54.387Z,36.10
2019-04-14T14:52:25.516Z,34.30
2019-04-14T14:54:56.821Z,33.70
2019-04-14T14:57:27.566Z,32.90
2019-04-14T14:59:58.187Z,32.30
2019-04-14T15:02:28.955Z,33.70
2019-04-14T15:04:59.748Z,33.70
2019-04-14T15:07:30.568Z,33.30
2019-04-14T15:10:01.433Z,32.30
2019-04-14T15:12:32.368Z,32.60
2019-04-14T15:15:03.240Z,32.90
2019-04-14T15:17:34.463Z,34.60
2019-04-14T15:20:06.021Z,33.60
2019-04-14T15:22:36.869Z,32.20
2019-04-14T15:25:08.142Z,31.70
2019-04-14T15:27:39.057Z,32.30
2019-04-14T15:30:14.844Z,31.10
2019-04-14T15:32:46.665Z,31.00
2019-04-14T15:35:17.457Z,31.70
2019-04-14T15:37:49.933Z,32.00
2019-04-14T15:40:20.706Z,31.20
2019-04-14T15:42:51.290Z,32.20
2019-04-14T15:45:22.048Z,33.30
2019-04-14T15:47:52.737Z,32.80
2019-04-14T15:50:24.773Z,32.20
2019-04-14T15:52:55.376Z,31.30
2019-04-14T15:55:26.054Z,31.20
2019-04-14T15:58:15.868Z,31.00
2019-04-14T16:01:05.573Z,32.10
2019-04-14T16:03:40.848Z,31.40
2019-04-14T16:06:30.453Z,30.60
2019-04-14T16:09:08.571Z,31.20
2019-04-14T16:11:59.899Z,31.10
2019-04-14T16:14:49.871Z,31.20
2019-04-14T16:17:39.498Z,30.60
2019-04-14T16:20:14.050Z,31.00
2019-04-14T16:22:44.759Z,31.30
2019-04-14T16:25:15.660Z,31.50
2019-04-14T16:28:05.531Z,31.60
2019-04-14T16:30:55.338Z,31.90
2019-04-14T16:33:45.233Z,32.20
2019-04-14T16:36:15.859Z,32.10
2019-04-14T16:38:46.720Z,33.50
2019-04-14T16:41:20.074Z,33.90
2019-04-14T16:43:50.177Z,35.00
2019-04-14T16:46:21.095Z,35.10
2019-04-14T16:48:53.075Z,35.70
2019-04-14T16:51:30.248Z,36.00
2019-04-14T16:54:07.845Z,37.60
2019-04-14T16:56:53.959Z,37.10
2019-04-14T16:59:25.779Z,37.00
2019-04-14T17:01:56.603Z,37.00
2019-04-14T17:04:27.550Z,37.10
2019-04-14T17:06:58.590Z,38.20
2019-04-14T17:09:30.121Z,38.60
2019-04-14T17:12:01.417Z,38.70
2019-04-14T17:14:37.593Z,39.10
2019-04-14T17:17:28.815Z,39.20
2019-04-14T17:20:09.685Z,39.90
2019-04-14T17:22:48.829Z,40.00
2019-04-14T17:25:28.483Z,40.10
2019-04-14T17:28:07.651Z,40.30
2019-04-14T17:30:44.337Z,40.30
2019-04-14T17:33:24.987Z,41.10
2019-04-14T17:36:03.897Z,41.00
2019-04-14T17:38:40.319Z,41.60
2019-04-14T17:41:30.316Z,41.80
2019-04-14T17:44:05.331Z,42.80
2019-04-14T17:46:55.089Z,43.40
2019-04-14T17:49:45.694Z,43.60
2019-04-14T17:52:35.578Z,44.30
2019-04-14T17:55:12.249Z,45.00
2019-04-14T17:58:01.950Z,45.20
2019-04-14T18:00:49.484Z,45.10
2019-04-14T18:03:31.838Z,45.60
2019-04-14T18:06:08.746Z,46.00
2019-04-14T18:08:58.767Z,46.00
2019-04-14T18:11:39.639Z,46.30
2019-04-14T18:14:20.817Z,47.20
2019-04-14T18:17:04.659Z,47.90
2019-04-14T18:19:48.683Z,48.20
2019-04-14T18:22:19.786Z,48.90
2019-04-14T18:24:51.418Z,48.90
2019-04-14T18:30:27.711Z,49.50
2019-04-14T18:33:09.868Z,49.60
2019-04-14T18:35:53.294Z,49.40
2019-04-14T18:38:43.287Z,49.50
2019-04-14T18:41:22.676Z,49.50
2019-04-14T18:44:16.533Z,49.60
2019-04-14T18:47:00.913Z,49.60
2019-04-14T18:49:49.658Z,50.20
2019-04-14T18:52:26.680Z,50.50
2019-04-14T18:55:14.703Z,51.10
2019-04-14T18:58:01.522Z,51.60
2019-04-14T19:00:53.882Z,51.60
2019-04-14T19:03:26.581Z,52.60
2019-04-14T19:05:57.743Z,51.60
2019-04-14T19:08:31.438Z,51.50
2019-04-14T19:11:10.232Z,51.50
2019-04-14T19:13:48.126Z,51.50
2019-04-14T19:16:38.597Z,51.40
2019-04-14T19:19:05.433Z,51.20
2019-04-14T19:21:41.603Z,51.90
2019-04-14T19:24:17.132Z,51.30
2019-04-14T19:26:49.563Z,51.10
2019-04-14T19:29:22.120Z,51.30
2019-04-14T19:31:57.196Z,51.10
2019-04-14T19:34:34.126Z,50.80
2019-04-14T19:37:07.835Z,51.10
2019-04-14T19:39:42.469Z,51.30
2019-04-14T19:42:29.887Z,51.30
2019-04-14T19:45:03.606Z,51.10
2019-04-14T19:47:39.014Z,51.20
2019-04-14T19:50:11.163Z,51.50
2019-04-14T19:52:43.540Z,51.40
2019-04-14T19:55:20.546Z,51.70
2019-04-14T19:57:50.203Z,52.00
2019-04-14T20:00:23.587Z,52.50
2019-04-14T20:02:54.387Z,52.70
2019-04-14T20:05:27.469Z,52.70
2019-04-14T20:07:58.476Z,52.40
2019-04-14T20:10:28.906Z,52.80
2019-04-14T20:13:00.099Z,52.80
2019-04-14T20:15:39.155Z,53.20
2019-04-14T20:18:18.653Z,53.70
2019-04-14T20:21:08.365Z,53.10
2019-04-14T20:23:43.589Z,53.50
2019-04-14T20:26:34.230Z,53.50
2019-04-14T20:29:09.377Z,53.80
2019-04-14T20:31:43.190Z,54.10
2019-04-14T20:34:13.983Z,54.50
2019-04-14T20:36:44.779Z,54.80
2019-04-14T20:39:20.142Z,55.00
2019-04-14T20:41:50.739Z,55.40
2019-04-14T20:44:21.390Z,55.50
2019-04-14T20:46:51.922Z,55.80
2019-04-14T20:49:22.527Z,56.00
2019-04-14T20:51:53.808Z,56.10
2019-04-14T20:54:26.477Z,56.80
2019-04-14T20:56:56.915Z,56.90
2019-04-14T20:59:27.436Z,57.20
2019-04-14T21:02:07.832Z,57.60
2019-04-14T21:04:59.711Z,57.70
2019-04-14T21:07:49.191Z,57.50
2019-04-14T21:10:30.933Z,57.80
2019-04-14T21:13:20.572Z,58.10
2019-04-14T21:16:12.743Z,58.80
2019-04-14T21:18:51.282Z,58.80
2019-04-14T21:21:28.553Z,59.10
2019-04-14T21:24:18.055Z,59.50
2019-04-14T21:26:56.726Z,60.10
2019-04-14T21:29:38.438Z,60.40
2019-04-14T21:32:19.231Z,60.50
2019-04-14T21:34:59.373Z,60.70
2019-04-14T21:37:43.889Z,61.10
2019-04-14T21:40:22.221Z,61.80
2019-04-14T21:42:52.740Z,62.10
2019-04-14T21:45:26.098Z,62.50
2019-04-14T21:47:55.930Z,62.80
2019-04-14T21:50:26.381Z,63.60
2019-04-14T21:52:57.021Z,64.30
2019-04-14T21:55:27.477Z,64.90
2019-04-14T21:58:13.624Z,65.20
2019-04-14T22:01:36.566Z,65.40
2019-04-14T22:04:26.188Z,66.10
2019-04-14T22:06:58.766Z,66.90
2019-04-14T22:09:32.735Z,67.50
2019-04-14T22:12:04.811Z,68.60
2019-04-14T22:14:35.341Z,69.20
2019-04-14T22:17:05.946Z,70.20
2019-04-14T22:19:39.874Z,70.80
2019-04-14T22:22:10.301Z,71.40
2019-04-14T22:24:40.945Z,72.00
2019-04-14T22:27:11.523Z,72.40
2019-04-14T22:29:42.089Z,73.00
2019-04-14T22:32:12.580Z,73.70
2019-04-14T22:34:43.071Z,74.30
2019-04-14T22:37:26.324Z,74.80
2019-04-14T22:39:56.902Z,75.80
2019-04-14T22:42:27.343Z,75.70
2019-04-14T22:44:58.470Z,76.50
2019-04-14T22:47:28.936Z,77.00
2019-04-14T22:49:59.516Z,77.30
2019-04-14T22:52:29.959Z,77.90
2019-04-14T22:55:00.405Z,78.20
2019-04-14T22:57:30.925Z,78.30
2019-04-14T23:00:01.584Z,79.10
2019-04-14T23:02:53.355Z,80.10
2019-04-14T23:05:42.827Z,79.80
2019-04-14T23:08:33.308Z,80.60
2019-04-14T23:11:15.870Z,80.90
2019-04-14T23:14:05.591Z,81.60
2019-04-14T23:16:55.211Z,82.30
2019-04-14T23:19:32.758Z,82.60
2019-04-14T23:22:10.823Z,83.30
2019-04-14T23:24:44.172Z,83.70
2019-04-14T23:27:14.702Z,84.00
2019-04-14T23:29:45.205Z,84.60
2019-04-14T23:32:15.731Z,85.10
2019-04-14T23:34:46.370Z,85.40
2019-04-14T23:37:16.803Z,86.10
2019-04-14T23:39:47.489Z,86.10
2019-04-14T23:42:18.111Z,86.00
2019-04-14T23:44:48.529Z,86.10
2019-04-14T23:47:19.059Z,86.50
2019-04-14T23:49:52.272Z,86.90
2019-04-14T23:52:22.812Z,87.20
2019-04-14T23:54:53.219Z,87.20
2019-04-14T23:57:23.672Z,87.20
2019-04-14T23:59:54.048Z,87.20
